| time (UTC) | temp F | wind direction | speed MPH | gust MPH | rain 1hr in | rain 24hr in | rain mn in | humidity % | barometer mb |
| 20260507002808 | 46 | 270 | 3.0 | 9.0 | 0.06 | 0.32 | 0.09 | 87 | 1022.8 |
| 20260507002307 | 46 | 225 | 1.0 | 6.0 | 0.07 | 0.32 | 0.09 | 88 | 1022.9 |
| 20260507001808 | 46 | 225 | 1.0 | 2.0 | 0.06 | 0.31 | 0.09 | 88 | 1023.0 |
| 20260507001307 | 46 | 248 | 1.0 | 2.0 | 0.08 | 0.30 | 0.08 | 87 | 1023.0 |
| 20260507000807 | 46 | 202 | 1.0 | 6.0 | 0.07 | 0.29 | 0.07 | 86 | 1023.0 |
| 20260507000307 | 46 | 248 | 2.0 | 6.0 | 0.05 | 0.27 | 0.05 | 86 | 1022.7 |
| 20260506235807 | 46 | 251 | 1.0 | 3.0 | 0.05 | 0.27 | 0.05 | 86 | 1022.6 |
| 20260506234807 | 45 | 270 | 0.0 | 1.0 | 0.05 | 0.27 | 0.05 | 87 | 1022.6 |
| 20260506234307 | 45 | 244 | 0.0 | 2.0 | 0.05 | 0.27 | 0.05 | 86 | 1022.8 |
| 20260506233807 | 45 | 183 | 2.0 | 5.0 | 0.05 | 0.26 | 0.04 | 84 | 1022.8 |
| 20260506233308 | 45 | 223 | 2.0 | 3.0 | 0.05 | 0.26 | 0.04 | 85 | 1022.5 |
| 20260506232808 | 45 | 248 | 1.0 | 5.0 | 0.05 | 0.26 | 0.04 | 85 | 1022.6 |
| 20260506232307 | 45 | 248 | 2.0 | 6.0 | 0.04 | 0.26 | 0.03 | 84 | 1022.6 |
| 20260506231807 | 46 | 250 | 2.0 | 8.0 | 0.04 | 0.26 | 0.03 | 82 | 1022.6 |
| 20260506231308 | 46 | 270 | 2.0 | 7.0 | 0.01 | 0.23 | 0.00 | 81 | 1022.5 |
| 20260506230807 | 45 | 227 | 2.0 | 7.0 | 0.01 | 0.23 | 0.00 | 83 | 1022.3 |
| 20260506230306 | 45 | 269 | 3.0 | 7.0 | 0.01 | 0.23 | 0.00 | 84 | 1022.3 |
| 20260506225807 | 44 | 248 | 2.0 | 6.0 | 0.02 | 0.23 | 0.23 | 84 | 1022.1 |
| 20260506225308 | 44 | 248 | 1.0 | 5.0 | 0.02 | 0.23 | 0.23 | 85 | 1022.2 |
| 20260506224807 | 44 | 250 | 2.0 | 3.0 | 0.03 | 0.23 | 0.23 | 85 | 1022.3 |
| 20260506224307 | 45 | 248 | 1.0 | 3.0 | 0.04 | 0.23 | 0.23 | 84 | 1022.3 |
| 20260506223807 | 45 | 249 | 2.0 | 7.0 | 0.03 | 0.22 | 0.22 | 82 | 1022.3 |
| 20260506223308 | 45 | 248 | 3.0 | 10.0 | 0.03 | 0.22 | 0.22 | 82 | 1022.0 |
| 20260506222807 | 45 | 245 | 3.0 | 7.0 | 0.03 | 0.22 | 0.22 | 83 | 1021.6 |
| 20260506222307 | 44 | 312 | 3.0 | 8.0 | 0.03 | 0.22 | 0.22 | 83 | 1021.7 |
| 20260506221808 | 44 | 315 | 2.0 | 8.0 | 0.03 | 0.22 | 0.22 | 84 | 1021.7 |
| 20260506221307 | 44 | 266 | 2.0 | 8.0 | 0.04 | 0.22 | 0.22 | 84 | 1021.7 |
| 20260506220807 | 44 | 287 | 3.0 | 7.0 | 0.05 | 0.22 | 0.22 | 84 | 1021.6 |
| 20260506220308 | 44 | 269 | 1.0 | 6.0 | 0.05 | 0.22 | 0.22 | 84 | 1021.7 |
| 20260506215807 | 44 | 241 | 2.0 | 6.0 | 0.04 | 0.21 | 0.21 | 83 | 1021.9 |
| 20260506215307 | 44 | 223 | 2.0 | 5.0 | 0.04 | 0.21 | 0.21 | 83 | 1022.2 |
| 20260506214807 | 44 | 245 | 3.0 | 5.0 | 0.03 | 0.20 | 0.20 | 82 | 1021.7 |
| 20260506214308 | 43 | 224 | 2.0 | 6.0 | 0.02 | 0.19 | 0.19 | 82 | 1021.7 |
| 20260506213807 | 43 | 271 | 3.0 | 6.0 | 0.02 | 0.19 | 0.19 | 84 | 1021.3 |
| 20260506213307 | 43 | 270 | 3.0 | 8.0 | 0.02 | 0.19 | 0.19 | 84 | 1021.2 |
| 20260506212808 | 43 | 289 | 3.0 | 12.0 | 0.02 | 0.19 | 0.19 | 85 | 1020.9 |
| 20260506212308 | 42 | 287 | 1.0 | 5.0 | 0.02 | 0.19 | 0.19 | 85 | 1021.2 |
| 20260506211806 | 42 | 243 | 1.0 | 3.0 | 0.02 | 0.19 | 0.19 | 85 | 1021.5 |
| 20260506211308 | 42 | 180 | 2.0 | 3.0 | 0.01 | 0.18 | 0.18 | 84 | 1021.4 |
| 20260506210808 | 42 | 202 | 1.0 | 2.0 | 0.00 | 0.17 | 0.17 | 85 | 1021.1 |
| 20260506210307 | 42 | 294 | 1.0 | 3.0 | 0.00 | 0.17 | 0.17 | 84 | 1020.6 |
| 20260506205807 | 42 | 317 | 1.0 | 3.0 | 0.00 | 0.17 | 0.17 | 84 | 1020.5 |
| 20260506205307 | 42 | 251 | 1.0 | 3.0 | 0.00 | 0.17 | 0.17 | 84 | 1020.4 |
| 20260506204807 | 42 | 291 | 1.0 | 3.0 | 0.00 | 0.17 | 0.17 | 84 | 1020.5 |
| 20260506203807 | 43 | 296 | 2.0 | 3.0 | 0.00 | 0.17 | 0.17 | 83 | 1020.4 |
| 20260506202807 | 43 | 227 | 3.0 | 6.0 | 0.00 | 0.17 | 0.17 | 82 | 1020.6 |
| 20260506201808 | 43 | 114 | 1.0 | 5.0 | 0.00 | 0.17 | 0.17 | 83 | 1020.4 |
| 20260506201307 | 43 | 288 | 2.0 | 8.0 | 0.00 | 0.17 | 0.17 | 82 | 1020.1 |
| 20260506200807 | 43 | 180 | 3.0 | 7.0 | 0.00 | 0.17 | 0.17 | 82 | 1020.0 |
| 20260506200307 | 43 | 183 | 3.0 | 9.0 | 0.00 | 0.17 | 0.17 | 82 | 1020.1 |
| 20260506195807 | 43 | 290 | 3.0 | 7.0 | 0.00 | 0.17 | 0.17 | 83 | 1019.9 |
| 20260506195308 | 43 | 311 | 5.0 | 8.0 | 0.00 | 0.17 | 0.17 | 83 | 1020.0 |
| 20260506194808 | 43 | 229 | 3.0 | 8.0 | 0.00 | 0.17 | 0.17 | 84 | 1019.9 |
| 20260506194307 | 43 | 268 | 4.0 | 8.0 | 0.00 | 0.17 | 0.17 | 84 | 1019.7 |
| 20260506192807 | 43 | 204 | 3.0 | 12.0 | 0.05 | 0.17 | 0.17 | 84 | 1019.7 |
| 20260506192308 | 43 | 250 | 5.0 | 12.0 | 0.06 | 0.17 | 0.17 | 84 | 1019.8 |
| 20260506191806 | 43 | 245 | 5.0 | 12.0 | 0.06 | 0.17 | 0.17 | 85 | 1019.8 |
| 20260506191308 | 43 | 204 | 4.0 | 12.0 | 0.06 | 0.17 | 0.17 | 85 | 1019.9 |
| 20260506190807 | 43 | 222 | 6.0 | 12.0 | 0.06 | 0.17 | 0.17 | 85 | 1019.8 |
| 20260506185807 | 43 | 227 | 3.0 | 8.0 | 0.06 | 0.17 | 0.17 | 86 | 1019.6 |
| 20260506185308 | 43 | 263 | 3.0 | 10.0 | 0.06 | 0.17 | 0.17 | 86 | 1019.5 |
| 20260506184807 | 43 | 89 | 2.0 | 12.0 | 0.06 | 0.17 | 0.17 | 86 | 1019.4 |
| 20260506184308 | 43 | 270 | 6.0 | 12.0 | 0.06 | 0.17 | 0.17 | 85 | 1020.0 |
| 20260506183807 | 44 | 219 | 6.0 | 16.0 | 0.04 | 0.15 | 0.15 | 83 | 1020.0 |
| 20260506183308 | 44 | 206 | 3.0 | 6.0 | 0.01 | 0.12 | 0.12 | 80 | 1019.9 |
| 20260506182808 | 44 | 286 | 2.0 | 6.0 | 0.01 | 0.12 | 0.12 | 78 | 1019.7 |
| 20260506182307 | 44 | 222 | 2.0 | 6.0 | 0.00 | 0.11 | 0.11 | 77 | 1019.4 |
| 20260506181806 | 43 | 249 | 1.0 | 6.0 | 0.00 | 0.11 | 0.11 | 78 | 1019.5 |
| 20260506180307 | 43 | 272 | 2.0 | 7.0 | 0.00 | 0.11 | 0.11 | 79 | 1019.0 |
| 20260506175808 | 43 | 43 | 3.0 | 8.0 | 0.00 | 0.11 | 0.11 | 80 | 1019.0 |
| 20260506175307 | 43 | 248 | 3.0 | 5.0 | 0.00 | 0.11 | 0.11 | 80 | 1018.8 |
| 20260506174807 | 43 | 274 | 2.0 | 6.0 | 0.00 | 0.11 | 0.11 | 81 | 1018.9 |
| 20260506174308 | 43 | 293 | 2.0 | 3.0 | 0.00 | 0.11 | 0.11 | 80 | 1018.7 |
| 20260506173807 | 43 | 278 | 2.0 | 7.0 | 0.00 | 0.11 | 0.11 | 80 | 1018.7 |
| 20260506172807 | 43 | 272 | 2.0 | 5.0 | 0.00 | 0.11 | 0.11 | 80 | 1019.0 |
| 20260506172307 | 43 | 118 | 2.0 | 10.0 | 0.00 | 0.11 | 0.11 | 80 | 1019.0 |
| 20260506171807 | 44 | 228 | 5.0 | 10.0 | 0.00 | 0.11 | 0.11 | 79 | 1019.3 |
| 20260506171307 | 44 | 246 | 3.0 | 8.0 | 0.00 | 0.11 | 0.11 | 79 | 1019.4 |
| 20260506170807 | 44 | 290 | 3.0 | 8.0 | 0.00 | 0.11 | 0.11 | 80 | 1019.7 |
| 20260506170307 | 44 | 289 | 2.0 | 7.0 | 0.00 | 0.11 | 0.11 | 79 | 1019.4 |
| 20260506165807 | 44 | 292 | 2.0 | 9.0 | 0.00 | 0.11 | 0.11 | 79 | 1019.3 |
| 20260506165308 | 44 | 265 | 3.0 | 10.0 | 0.00 | 0.11 | 0.11 | 78 | 1019.6 |
| 20260506164807 | 44 | 269 | 5.0 | 10.0 | 0.00 | 0.11 | 0.11 | 78 | 1019.3 |
| 20260506164307 | 44 | 203 | 5.0 | 10.0 | 0.00 | 0.11 | 0.11 | 78 | 1019.2 |
| 20260506163807 | 44 | 334 | 3.0 | 9.0 | 0.00 | 0.11 | 0.11 | 78 | 1019.2 |
| 20260506163307 | 44 | 272 | 3.0 | 9.0 | 0.00 | 0.11 | 0.11 | 79 | 1019.0 |
| 20260506162807 | 44 | 227 | 4.0 | 8.0 | 0.00 | 0.11 | 0.11 | 79 | 1019.4 |
| 20260506162307 | 44 | 228 | 2.0 | 5.0 | 0.00 | 0.11 | 0.11 | 80 | 1019.3 |
| 20260506161809 | 44 | 291 | 2.0 | 9.0 | 0.00 | 0.11 | 0.11 | 79 | 1019.2 |
| 20260506161307 | 44 | 87 | 1.0 | 5.0 | 0.00 | 0.11 | 0.11 | 79 | 1019.3 |
| 20260506160807 | 44 | 270 | 2.0 | 7.0 | 0.00 | 0.11 | 0.11 | 78 | 1018.9 |
| 20260506160307 | 44 | 273 | 2.0 | 6.0 | 0.00 | 0.11 | 0.11 | 78 | 1019.1 |
| 20260506155807 | 45 | 206 | 2.0 | 8.0 | 0.00 | 0.11 | 0.11 | 77 | 1018.9 |
| 20260506155307 | 45 | 249 | 4.0 | 10.0 | 0.00 | 0.11 | 0.11 | 75 | 1019.1 |
| 20260506154808 | 45 | 268 | 4.0 | 10.0 | 0.00 | 0.11 | 0.11 | 75 | 1019.1 |
| 20260506154308 | 45 | 205 | 5.0 | 12.0 | 0.00 | 0.11 | 0.11 | 75 | 1019.2 |
| 20260506153807 | 45 | 250 | 3.0 | 12.0 | 0.00 | 0.11 | 0.11 | 75 | 1019.3 |
| 20260506152808 | 45 | 292 | 4.0 | 12.0 | 0.00 | 0.11 | 0.11 | 75 | 1019.1 |
| 20260506151806 | 45 | 246 | 3.0 | 10.0 | 0.00 | 0.11 | 0.11 | 75 | 1019.3 |
| 20260506151307 | 45 | 270 | 2.0 | 8.0 | 0.00 | 0.11 | 0.11 | 76 | 1019.2 |
| 20260506150808 | 45 | 221 | 3.0 | 8.0 | 0.00 | 0.11 | 0.11 | 76 | 1019.1 |
| 20260506150307 | 45 | 266 | 4.0 | 8.0 | 0.00 | 0.11 | 0.11 | 78 | 1019.2 |
| 20260506145807 | 45 | 289 | 5.0 | 12.0 | 0.00 | 0.11 | 0.11 | 79 | 1019.1 |
| 20260506145307 | 45 | 270 | 3.0 | 10.0 | 0.00 | 0.11 | 0.11 | 80 | 1019.3 |
| 20260506144807 | 45 | 202 | 4.0 | 10.0 | 0.00 | 0.11 | 0.11 | 80 | 1019.1 |
| 20260506143808 | 46 | 225 | 6.0 | 12.0 | 0.00 | 0.11 | 0.11 | 80 | 1019.2 |
| 20260506143307 | 47 | 43 | 7.0 | 15.0 | 0.00 | 0.11 | 0.11 | 77 | 1019.1 |
| 20260506142807 | 47 | 203 | 3.0 | 8.0 | 0.00 | 0.11 | 0.11 | 72 | 1019.2 |
| 20260506142308 | 47 | 270 | 2.0 | 9.0 | 0.00 | 0.11 | 0.11 | 71 | 1019.1 |
| 20260506141807 | 47 | 249 | 3.0 | 9.0 | 0.00 | 0.11 | 0.11 | 71 | 1019.0 |
| 20260506135807 | 47 | 269 | 2.0 | 7.0 | 0.00 | 0.11 | 0.11 | 71 | 1018.9 |
| 20260506135307 | 47 | 291 | 3.0 | 8.0 | 0.00 | 0.11 | 0.11 | 70 | 1018.9 |
| 20260506134806 | 47 | 270 | 3.0 | 7.0 | 0.00 | 0.11 | 0.11 | 70 | 1018.6 |
| 20260506134307 | 47 | 269 | 2.0 | 10.0 | 0.00 | 0.11 | 0.11 | 69 | 1018.7 |
| 20260506133807 | 47 | 271 | 4.0 | 8.0 | 0.00 | 0.11 | 0.11 | 69 | 1018.6 |
| 20260506133306 | 47 | 269 | 3.0 | 9.0 | 0.00 | 0.11 | 0.11 | 69 | 1018.5 |
| 20260506132807 | 47 | 246 | 4.0 | 13.0 | 0.00 | 0.11 | 0.11 | 69 | 1018.6 |
| 20260506131806 | 47 | 225 | 5.0 | 13.0 | 0.00 | 0.11 | 0.11 | 70 | 1018.8 |
| 20260506131307 | 48 | 273 | 5.0 | 10.0 | 0.00 | 0.11 | 0.11 | 71 | 1018.7 |
| 20260506130807 | 48 | 225 | 7.0 | 12.0 | 0.00 | 0.11 | 0.11 | 71 | 1018.5 |
| 20260506130307 | 48 | 246 | 8.0 | 15.0 | 0.00 | 0.11 | 0.11 | 71 | 1018.3 |
| 20260506125807 | 48 | 208 | 6.0 | 14.0 | 0.00 | 0.11 | 0.11 | 73 | 1018.2 |
| 20260506125307 | 49 | 246 | 5.0 | 12.0 | 0.00 | 0.11 | 0.11 | 73 | 1018.1 |
| 20260506124807 | 49 | 227 | 5.0 | 13.0 | 0.00 | 0.11 | 0.11 | 72 | 1018.0 |
| 20260506123807 | 49 | 167 | 3.0 | 9.0 | 0.00 | 0.11 | 0.11 | 72 | 1018.1 |
| 20260506123308 | 50 | 248 | 4.0 | 15.0 | 0.00 | 0.11 | 0.11 | 72 | 1018.4 |
| 20260506122808 | 50 | 251 | 6.0 | 15.0 | 0.00 | 0.11 | 0.11 | 70 | 1018.4 |
| 20260506120808 | 50 | 291 | 4.0 | 9.0 | 0.00 | 0.11 | 0.11 | 77 | 1018.2 |
| 20260506115308 | 50 | 353 | 3.0 | 7.0 | 0.00 | 0.11 | 0.11 | 79 | 1018.2 |
| 20260506114807 | 50 | 268 | 2.0 | 7.0 | 0.00 | 0.11 | 0.11 | 79 | 1018.2 |
| 20260506114307 | 50 | 182 | 2.0 | 7.0 | 0.00 | 0.11 | 0.11 | 79 | 1018.1 |
| 20260506113807 | 50 | 251 | 3.0 | 9.0 | 0.00 | 0.11 | 0.11 | 79 | 1018.0 |
| 20260506113308 | 50 | 207 | 3.0 | 8.0 | 0.00 | 0.11 | 0.11 | 79 | 1018.1 |
| 20260506112807 | 50 | 249 | 5.0 | 8.0 | 0.00 | 0.11 | 0.11 | 79 | 1018.1 |
| 20260506112307 | 50 | 289 | 3.0 | 12.0 | 0.00 | 0.11 | 0.11 | 79 | 1017.8 |
| 20260506111806 | 50 | 270 | 4.0 | 12.0 | 0.00 | 0.11 | 0.11 | 80 | 1017.9 |
| 20260506111306 | 50 | 270 | 3.0 | 14.0 | 0.00 | 0.11 | 0.11 | 80 | 1018.0 |
| 20260506110307 | 50 | 230 | 6.0 | 13.0 | 0.00 | 0.11 | 0.11 | 80 | 1017.6 |
| 20260506105807 | 50 | 290 | 6.0 | 14.0 | 0.00 | 0.11 | 0.11 | 80 | 1017.7 |
| 20260506105307 | 50 | 228 | 6.0 | 12.0 | 0.00 | 0.11 | 0.11 | 81 | 1018.0 |
| 20260506104808 | 51 | 250 | 3.0 | 13.0 | 0.00 | 0.11 | 0.11 | 81 | 1017.9 |
| 20260506104308 | 51 | 162 | 6.0 | 14.0 | 0.00 | 0.11 | 0.11 | 81 | 1017.9 |
| 20260506102808 | 51 | 287 | 6.0 | 14.0 | 0.00 | 0.11 | 0.11 | 83 | 1017.7 |
| 20260506101806 | 51 | 248 | 7.0 | 18.0 | 0.01 | 0.11 | 0.11 | 85 | 1017.5 |
| 20260506101307 | 52 | 205 | 7.0 | 14.0 | 0.01 | 0.11 | 0.11 | 88 | 1017.7 |
| 20260506095807 | 52 | 204 | 5.0 | 14.0 | 0.02 | 0.11 | 0.11 | 91 | 1016.9 |
| 20260506095307 | 53 | 250 | 6.0 | 14.0 | 0.02 | 0.11 | 0.11 | 91 | 1017.0 |
| 20260506094807 | 53 | 247 | 3.0 | 10.0 | 0.02 | 0.11 | 0.11 | 91 | 1016.8 |
| 20260506094307 | 53 | 251 | 5.0 | 10.0 | 0.02 | 0.11 | 0.11 | 91 | 1016.9 |
| 20260506093807 | 53 | 270 | 3.0 | 10.0 | 0.02 | 0.11 | 0.11 | 91 | 1016.9 |
| 20260506093307 | 53 | 250 | 6.0 | 10.0 | 0.02 | 0.11 | 0.11 | 90 | 1016.8 |
| 20260506092807 | 53 | 265 | 5.0 | 17.0 | 0.02 | 0.11 | 0.11 | 90 | 1016.7 |
| 20260506091808 | 54 | 267 | 6.0 | 13.0 | 0.01 | 0.10 | 0.10 | 87 | 1016.6 |
| 20260506091307 | 54 | 289 | 6.0 | 15.0 | 0.01 | 0.10 | 0.10 | 87 | 1016.8 |
| 20260506090807 | 54 | 227 | 5.0 | 12.0 | 0.01 | 0.10 | 0.10 | 87 | 1016.2 |
| 20260506090307 | 55 | 268 | 6.0 | 12.0 | 0.01 | 0.10 | 0.10 | 87 | 1016.1 |
| 20260506085807 | 55 | 246 | 4.0 | 10.0 | 0.00 | 0.09 | 0.09 | 87 | 1016.2 |
| 20260506085308 | 56 | 243 | 6.0 | 13.0 | 0.00 | 0.09 | 0.09 | 86 | 1016.0 |
| 20260506084807 | 57 | 273 | 3.0 | 6.0 | 0.00 | 0.09 | 0.09 | 88 | 1015.8 |
| 20260506084307 | 56 | 337 | 1.0 | 3.0 | 0.01 | 0.09 | 0.09 | 88 | 1015.2 |
| 20260506083807 | 57 | 180 | 1.0 | 2.0 | 0.04 | 0.09 | 0.09 | 88 | 1015.1 |
| 20260506083307 | 57 | 20 | 1.0 | 3.0 | 0.08 | 0.09 | 0.09 | 88 | 1015.1 |
| 20260506082807 | 57 | 82 | 1.0 | 5.0 | 0.09 | 0.09 | 0.09 | 89 | 1015.2 |
| 20260506082307 | 57 | 225 | 1.0 | 5.0 | 0.09 | 0.09 | 0.09 | 89 | 1015.1 |
| 20260506081808 | 57 | 338 | 1.0 | 5.0 | 0.09 | 0.09 | 0.09 | 89 | 1015.0 |
| 20260506081307 | 57 | 333 | 1.0 | 5.0 | 0.09 | 0.09 | 0.09 | 89 | 1015.1 |
| 20260506080807 | 57 | 318 | 1.0 | 5.0 | 0.09 | 0.09 | 0.09 | 89 | 1014.9 |
| 20260506080307 | 57 | 88 | 1.0 | 5.0 | 0.09 | 0.09 | 0.09 | 89 | 1014.9 |
| 20260506073307 | 60 | 245 | 3.0 | 10.0 | 0.02 | 0.02 | 0.02 | 80 | 1015.0 |
| 20260506072807 | 62 | 290 | 3.0 | 7.0 | 0.00 | 0.00 | 0.00 | 71 | 1015.1 |
| 20260506071806 | 63 | 297 | 3.0 | 13.0 | 0.00 | 0.00 | 0.00 | 63 | 1014.2 |
| 20260506071307 | 63 | 333 | 3.0 | 6.0 | 0.00 | 0.00 | 0.00 | 62 | 1014.3 |
| 20260506070806 | 63 | 40 | 2.0 | 12.0 | 0.00 | 0.00 | 0.00 | 62 | 1014.3 |
| 20260506070307 | 64 | 4 | 2.0 | 12.0 | 0.00 | 0.00 | 0.00 | 61 | 1014.3 |
| 20260506062306 | 65 | 315 | 3.0 | 8.0 | 0.00 | 0.00 | 0.00 | 55 | 1014.6 |
| 20260506061807 | 66 | 338 | 2.0 | 9.0 | 0.00 | 0.00 | 0.00 | 55 | 1014.7 |
| 20260506061307 | 65 | 292 | 2.0 | 7.0 | 0.00 | 0.00 | 0.00 | 55 | 1014.6 |
| 20260506060807 | 65 | 315 | 1.0 | 7.0 | 0.00 | 0.00 | 0.00 | 55 | 1014.8 |
| 20260506051307 | 68 | 24 | 4.0 | 8.0 | 0.00 | 0.00 | 0.00 | 49 | 1015.0 |
| 20260506050807 | 68 | 271 | 3.0 | 12.0 | 0.00 | 0.00 | 0.00 | 50 | 1015.2 |
| 20260506050306 | 67 | 226 | 3.0 | 12.0 | 0.00 | 0.00 | 0.00 | 51 | 1015.2 |
| 20260506044308 | 66 | 292 | 2.0 | 6.0 | 0.00 | 0.00 | 0.00 | 52 | 1015.6 |
| 20260506043807 | 67 | 338 | 1.0 | 6.0 | 0.00 | 0.00 | 0.00 | 51 | 1015.6 |
| 20260506043306 | 67 | 234 | 2.0 | 6.0 | 0.00 | 0.00 | 0.00 | 51 | 1015.7 |
| 20260506042807 | 67 | 338 | 2.0 | 7.0 | 0.00 | 0.00 | 0.00 | 50 | 1015.8 |
| 20260506042307 | 68 | 20 | 2.0 | 7.0 | 0.00 | 0.00 | 0.00 | 49 | 1016.1 |
| 20260506040807 | 67 | 311 | 2.0 | 5.0 | 0.00 | 0.00 | 0.00 | 50 | 1015.9 |
| 20260506040307 | 68 | 25 | 1.0 | 6.0 | 0.00 | 0.00 | 0.00 | 49 | 1016.1 |
| 20260506035807 | 69 | 0 | 2.0 | 6.0 | 0.00 | 0.00 | 0.00 | 47 | 1016.2 |
| 20260506035307 | 68 | 247 | 2.0 | 8.0 | 0.00 | 0.00 | 0.00 | 48 | 1016.3 |
| 20260506034807 | 67 | 336 | 2.0 | 7.0 | 0.00 | 0.00 | 0.00 | 49 | 1016.2 |
| 20260506034307 | 66 | 247 | 2.0 | 6.0 | 0.00 | 0.00 | 0.00 | 51 | 1016.5 |
| 20260506033807 | 66 | 295 | 2.0 | 5.0 | 0.00 | 0.00 | 0.00 | 51 | 1016.6 |
| 20260506033307 | 65 | 293 | 2.0 | 6.0 | 0.00 | 0.00 | 0.00 | 52 | 1016.7 |
| 20260506032807 | 65 | 5 | 2.0 | 9.0 | 0.00 | 0.00 | 0.00 | 52 | 1016.9 |
| 20260506032307 | 66 | 224 | 3.0 | 6.0 | 0.00 | 0.00 | 0.00 | 51 | 1017.1 |
| 20260506031807 | 66 | 292 | 2.0 | 3.0 | 0.00 | 0.00 | 0.00 | 50 | 1016.9 |
| 20260506031307 | 66 | 357 | 1.0 | 7.0 | 0.00 | 0.00 | 0.00 | 50 | 1017.0 |
| 20260506030807 | 67 | 268 | 2.0 | 9.0 | 0.00 | 0.00 | 0.00 | 50 | 1017.2 |
| 20260506030307 | 67 | 336 | 3.0 | 7.0 | 0.00 | 0.00 | 0.00 | 49 | 1017.1 |
| 20260506025808 | 67 | 89 | 3.0 | 7.0 | 0.00 | 0.00 | 0.00 | 49 | 1017.2 |
| 20260506025308 | 67 | 338 | 2.0 | 7.0 | 0.00 | 0.00 | 0.00 | 49 | 1017.4 |
| 20260506024807 | 68 | 157 | 3.0 | 8.0 | 0.00 | 0.00 | 0.00 | 48 | 1017.5 |
| 20260506024307 | 68 | 54 | 3.0 | 8.0 | 0.00 | 0.00 | 0.00 | 48 | 1017.5 |
| 20260506023807 | 66 | 20 | 3.0 | 6.0 | 0.00 | 0.00 | 0.00 | 50 | 1017.6 |
| 20260506023307 | 66 | 249 | 2.0 | 6.0 | 0.00 | 0.00 | 0.00 | 50 | 1017.7 |
| 20260506022806 | 66 | 252 | 3.0 | 7.0 | 0.00 | 0.00 | 0.00 | 50 | 1018.0 |
| 20260506022307 | 67 | 161 | 3.0 | 6.0 | 0.00 | 0.00 | 0.00 | 49 | 1018.1 |
| 20260506021807 | 67 | 179 | 3.0 | 8.0 | 0.00 | 0.00 | 0.00 | 49 | 1018.3 |
| 20260506021307 | 67 | 62 | 2.0 | 8.0 | 0.00 | 0.00 | 0.00 | 49 | 1018.3 |
| 20260506020808 | 66 | 24 | 2.0 | 5.0 | 0.00 | 0.00 | 0.00 | 50 | 1018.4 |
| 20260506015806 | 65 | 230 | 3.0 | 6.0 | 0.00 | 0.00 | 0.00 | 51 | 1018.6 |
| 20260506015308 | 66 | 359 | 3.0 | 8.0 | 0.00 | 0.00 | 0.00 | 50 | 1018.7 |
| 20260506014807 | 65 | 228 | 2.0 | 9.0 | 0.00 | 0.00 | 0.00 | 51 | 1018.9 |
| 20260506014307 | 65 | 206 | 3.0 | 8.0 | 0.00 | 0.00 | 0.00 | 52 | 1018.9 |
| 20260506013807 | 65 | 202 | 3.0 | 8.0 | 0.00 | 0.00 | 0.00 | 52 | 1019.1 |
| 20260506013306 | 64 | 90 | 3.0 | 8.0 | 0.00 | 0.00 | 0.00 | 54 | 1019.1 |
| 20260506012807 | 64 | 205 | 2.0 | 6.0 | 0.00 | 0.00 | 0.00 | 54 | 1019.4 |
| 20260506011807 | 63 | 315 | 2.0 | 7.0 | 0.00 | 0.00 | 0.00 | 55 | 1019.4 |
| 20260506011306 | 63 | 272 | 3.0 | 7.0 | 0.00 | 0.00 | 0.00 | 55 | 1019.5 |
| 20260506010307 | 63 | 337 | 1.0 | 7.0 | 0.00 | 0.00 | 0.00 | 56 | 1019.8 |
| 20260506005807 | 63 | 314 | 3.0 | 7.0 | 0.00 | 0.00 | 0.00 | 56 | 1019.8 |
| 20260506005307 | 63 | 0 | 2.0 | 6.0 | 0.00 | 0.00 | 0.00 | 55 | 1019.9 |
| 20260506004807 | 64 | 251 | 3.0 | 6.0 | 0.00 | 0.00 | 0.00 | 54 | 1019.8 |
| 20260506003807 | 65 | 338 | 2.0 | 8.0 | 0.00 | 0.00 | 0.00 | 53 | 1020.1 |
| 20260506003308 | 65 | 338 | 3.0 | 6.0 | 0.00 | 0.00 | 0.00 | 52 | 1020.0 |